• Join FlightAware (Why Join?)
  • Login
  • US Flag 
02:36AM EDT


 

Airport Tracker/Info


-or-


 

Live Flight TrackerFlight Track Log ✈ SWA2153 ✈ 27-Sep-2013 ✈ KHOU - KBNA

Flight Track Log - Related Links

Times and Time Zones

All times are in EDT time to prevent confusion due to time zone crossing. See the SWA2153 flight status page for this flight to view local times or setup timezone preferences in your user account.

Time Position Orientation Groundspeed Altitude Reporting Facility
EDT Latitude Longitude Course Direction KTS MPH feet Rate Location/Type
07:04PM 29.6353 -95.2892 144° Southeast 149 171 700  Level Houston Center
07:05PM 29.6150 -95.2722 144° Southeast 185 213 2,000 1,980 Climbing Houston Center
07:06PM 29.6758 -95.2722 360° North 246 283 4,600 2,220 Climbing Houston Center
07:06PM 29.6722 -95.2697 149° Southeast 239 275 4,400 2,580 Descending Houston Center
07:07PM 29.7294 -95.3119 327° Northwest 242 278 7,400 2,520 Climbing Houston Center
07:08PM 29.7956 -95.2958 12° North 251 289 9,700 1,800 Climbing Houston Center
07:09PM 29.8758 -95.2531 25° Northeast 315 362 11,200 1,980 Climbing Houston Center
07:10PM 29.9658 -95.2039 25° Northeast 352 405 13,900 2,700 Climbing Houston Center
07:11PM 30.0847 -95.1425 24° Northeast 387 445 16,900 2,640 Climbing Houston Center
07:12PM 30.1872 -95.0869 25° Northeast 404 465 19,400 2,400 Climbing Houston Center
07:13PM 30.2961 -95.0306 24° Northeast 424 488 21,900 2,400 Climbing Houston Center
07:14PM 30.4047 -94.9717 25° Northeast 431 496 24,400 2,280 Climbing Houston Center
07:15PM 30.5294 -94.9053 25° Northeast 431 496 26,700 1,680 Climbing Houston Center
07:16PM 30.6375 -94.8283 31° Northeast 452 520 28,000 1,500 Climbing Houston Center
07:17PM 30.7428 -94.7450 34° Northeast 456 525 29,800 1,740 Climbing Houston Center
07:18PM 30.8514 -94.6614 33° Northeast 465 535 31,600 1,560 Climbing Houston Center
07:19PM 30.9572 -94.5778 34° Northeast 463 533 33,100 1,860 Climbing Houston Center
07:20PM 31.0792 -94.4828 34° Northeast 434 499 35,500 1,800 Climbing Houston Center
07:21PM 31.1808 -94.4042 33° Northeast 448 516 36,900 1,260 Climbing Houston Center
07:22PM 31.2786 -94.3197 36° Northeast 463 533 38,200 960 Climbing Houston Center
07:23PM 31.3597 -94.2158 48° Northeast 442 509 39,000 360 Climbing Houston Center
07:24PM 31.4411 -94.1092 48° Northeast 440 506 39,000  Level Houston Center
07:25PM 31.5386 -93.9831 48° Northeast 438 504 39,000  Level Houston Center
07:26PM 31.6181 -93.8758 49° Northeast 436 502 39,000  Level Houston Center
07:27PM 31.6983 -93.7692 48° Northeast 436 502 39,000  Level Houston Center
07:28PM 31.7797 -93.6631 48° Northeast 437 503 39,000  Level Houston Center
07:29PM 31.8656 -93.5464 49° Northeast 436 502 39,000  Level Houston Center
07:30PM 31.9450 -93.4397 49° Northeast 434 499 39,000  Level Houston Center
07:31PM 32.0247 -93.3322 49° Northeast 434 499 39,000  Level Houston Center
07:33PM 32.1050 -93.2250 49° Northeast 434 499 39,000  Level Houston Center
07:34PM 32.2042 -93.0950 48° Northeast 430 495 39,000  Level Fort Worth Center
07:35PM 32.2839 -92.9878 49° Northeast 425 489 39,000  Level Fort Worth Center
07:36PM 32.3614 -92.8808 49° Northeast 420 483 39,000  Level Fort Worth Center
07:37PM 32.4406 -92.7636 51° Northeast 428 493 39,000  Level Fort Worth Center
07:38PM 32.5200 -92.6561 49° Northeast 434 499 39,000  Level Fort Worth Center
07:39PM 32.5994 -92.5483 49° Northeast 434 499 39,000  Level Fort Worth Center
07:40PM 32.6767 -92.4406 50° Northeast 429 494 39,000  Level Fort Worth Center
07:41PM 32.7600 -92.3297 48° Northeast 423 487 39,000  Level Fort Worth Center
07:43PM 32.8972 -92.1361 50° Northeast 422 486 39,000  Level Memphis Center
07:44PM 32.9761 -92.0264 49° Northeast 422 486 39,000  Level Memphis Center
07:45PM 33.0506 -91.9186 50° Northeast 422 486 39,000  Level Memphis Center
07:46PM 33.1269 -91.8133 49° Northeast 422 486 39,000  Level Memphis Center
07:47PM 33.2056 -91.7031 50° Northeast 428 493 39,000  Level Memphis Center
07:48PM 33.2794 -91.5972 50° Northeast 428 493 39,000  Level Memphis Center
07:49PM 33.3558 -91.4914 49° Northeast 423 487 39,000  Level Memphis Center
07:50PM 33.4317 -91.3853 49° Northeast 423 487 39,000  Level Memphis Center
07:51PM 33.5078 -91.2764 50° Northeast 423 487 39,000  Level Memphis Center
07:52PM 33.5858 -91.1675 49° Northeast 428 493 39,000  Level Memphis Center
07:53PM 33.6636 -91.0586 49° Northeast 428 493 39,000  Level Memphis Center
07:54PM 33.7372 -90.9517 50° Northeast 428 493 39,000  Level Memphis Center
07:55PM 33.8192 -90.8297 51° Northeast 428 493 39,000  Level Memphis Center
07:56PM 33.8883 -90.7325 49° Northeast 428 493 39,000  Level Memphis Center
07:57PM 33.9636 -90.6225 50° Northeast 428 493 39,000  Level Memphis Center
07:58PM 34.0369 -90.5150 51° Northeast 428 493 39,000  Level Memphis Center
07:59PM 34.1142 -90.4047 50° Northeast 428 493 39,000  Level Memphis Center
08:00PM 34.1894 -90.2919 51° Northeast 427 491 39,000 -240 Level Memphis Center
08:01PM 34.2622 -90.1864 50° Northeast 421 484 38,600 -720 Descending Memphis Center
08:02PM 34.3372 -90.0756 51° Northeast 421 484 37,600 -960 Descending Memphis Center
08:03PM 34.4142 -89.9619 51° Northeast 426 490 36,700 -960 Descending Memphis Center
08:04PM 34.4950 -89.8381 52° Northeast 431 496 35,700 -900 Descending Memphis Center
08:05PM 34.5739 -89.7214 51° Northeast 431 496 35,000 -360 Descending Memphis Center
08:06PM 34.6503 -89.6022 52° Northeast 437 503 35,000 -240 Level Memphis Center
08:07PM 34.7289 -89.4853 51° Northeast 444 511 34,600 -720 Descending Memphis Center
08:08PM 34.8072 -89.3706 50° Northeast 444 511 33,600 -1,080 Descending Memphis Center
08:09PM 34.8836 -89.2583 50° Northeast 444 511 32,500 -1,080 Descending Memphis Center
08:10PM 34.9575 -89.1483 51° Northeast 431 496 31,500 -900 Descending Memphis Center
08:11PM 35.0317 -89.0383 51° Northeast 422 486 30,800 -900 Descending Memphis Center
08:12PM 35.1033 -88.9306 51° Northeast 422 486 29,700 -1,080 Descending Memphis Center
08:13PM 35.1750 -88.8203 51° Northeast 422 486 28,700 -1,020 Descending Memphis Center
08:14PM 35.2467 -88.7122 51° Northeast 412 474 27,700 -1,020 Descending Memphis Center
08:15PM 35.3142 -88.6064 52° Northeast 399 459 26,700 -1,080 Descending Memphis Center
08:16PM 35.3836 -88.5031 50° Northeast 394 453 25,600 -1,080 Descending Memphis Center
08:17PM 35.4467 -88.4022 52° Northeast 388 447 24,600 -1,020 Descending Memphis Center
08:18PM 35.5139 -88.2986 51° Northeast 382 440 23,600 -1,020 Descending Memphis Center
08:19PM 35.5767 -88.2000 52° Northeast 377 434 22,600 -900 Descending Memphis Center
08:20PM 35.6336 -88.1067 53° Northeast 377 434 21,800 -900 Descending Memphis Center
08:21PM 35.6728 -87.9803 69° East 377 434 20,800 -1,380 Descending Memphis Center
08:22PM 35.7100 -87.8542 70° East 384 442 19,100 -1,860 Descending Memphis Center
08:23PM 35.7472 -87.7378 68° East 373 429 17,100 -2,100 Descending Memphis Center
08:24PM 35.7800 -87.6192 71° East 366 421 14,900 -2,160 Descending Memphis Center
08:25PM 35.8192 -87.5050 67° East 360 414 12,800 -2,100 Descending Memphis Center
08:26PM 35.8603 -87.3883 66° East 348 400 10,800 -1,440 Descending Memphis Center
08:27PM 35.8975 -87.2897 65° Northeast 324 373 10,000 -1,020 Descending Memphis Center
08:28PM 35.9286 -87.2039 66° East 294 338 8,800 -1,260 Descending Memphis Center
08:29PM 35.9578 -87.1156 68° East 276 318 7,500 -1,380 Descending Memphis Center
08:30PM 35.9658 -87.0256 84° East 266 306 6,100 -1,320 Descending Memphis Center
08:31PM 35.9736 -86.9356 84° East 261 300 4,900 -1,020 Descending Memphis Center
08:32PM 35.9839 -86.8531 81° East 250 288 4,100 -840 Descending Memphis Center
08:33PM 35.9989 -86.7881 74° East 213 245 3,300 -900 Descending Memphis Center
08:34PM 36.0200 -86.7308 65° Northeast 190 219 2,300 -960 Descending Memphis Center
08:35PM 36.0547 -86.7061 30° Northeast 146 168 1,500 -780 Descending Memphis Center
08:36PM 36.0897 -86.6917 18° North 135 155 800 -480 Descending Memphis Center
08:37PM 36.1206 -86.6775 20° North 130 150 600 12,180 Descending Memphis Center
08:38PM 36.1578 -86.6631 17° North 130 150 25,000 12,300 Climbing Memphis Center
08:39PM 36.1928 -86.6486 18° North 130 150 25,000  Level Memphis Center
08:41PM 36.1167 -86.6667 39° Northeast  Level FlightAware Approximate
08:48PM 36.1245 -86.6782 39° Northeast  Level Estimated
08:49PM 36.1245 -86.6782 39° Northeast  Level Estimated
08:50PM 36.1245 -86.6782 39° Northeast  Level Estimated
08:51PM 36.1245 -86.6782 39° Northeast  Level Estimated
08:52PM 36.1245 -86.6782 39° Northeast  Level Estimated